Mobile Site You Are Here >  >  >  >  > 2012-13 Game Log

Alshwan Hymes 2012-13 Game Log

Position: Guard

Height: 6-2 ▪ Weight: 203

High School: Jamesville-DeWitt

School: Canisius
Career: 114 G, 9.2 PPG, 2.3 RPG, 1.4 APG

11

Game Log

Rk Date School Opponent Type GS MP FG FGA FG% 2P 2PA 2P% 3P 3PA 3P% FT FTA FT% ORB DRB TRB AST STL BLK TOV PF PTS
1 2012-11-12 Canisius Boston University REG W 0 21 6 9 .667 3 5 .600 3 4 .750 0 1 .000 0 0 0 1 0 0 1 1 15
2 2012-11-17 Canisius St. Bonaventure REG W 0 17 2 6 .333 1 2 .500 1 4 .250 0 0 0 1 1 1 0 0 4 0 5
3 2012-11-20 Canisius Buffalo REG W 0 23 2 8 .250 2 4 .500 0 4 .000 0 0 3 2 5 2 1 0 2 1 4
4 2012-11-24 Canisius @ Stony Brook REG L 0 21 2 7 .286 1 3 .333 1 4 .250 3 3 1.000 2 1 3 0 1 0 3 4 8
5 2012-11-29 Canisius @ Maryland-Baltimore County REG W 0 17 0 6 .000 0 1 .000 0 5 .000 2 2 1.000 1 2 3 2 0 0 2 1 2
6 2012-12-07 Canisius @ Fairfield REG W 0 16 1 1 1.000 0 0 1 1 1.000 0 0 0 1 1 0 2 0 2 2 3
7 2012-12-09 Canisius @ Marist REG W 0 21 4 8 .500 1 1 1.000 3 7 .429 2 2 1.000 1 0 1 0 0 0 1 2 13
8 2012-12-15 Canisius @ Syracuse REG L 0 14 2 7 .286 0 3 .000 2 4 .500 0 0 1 3 4 1 0 0 2 1 6
9 2012-12-17 Canisius Longwood REG W 0 25 5 12 .417 1 2 .500 4 10 .400 4 4 1.000 0 3 3 1 1 0 4 1 18
10 2012-12-19 Canisius @ Temple REG W 0 14 1 1 1.000 0 0 1 1 1.000 2 2 1.000 0 3 3 0 0 0 3 0 5
11 2012-12-22 Canisius @ Nevada-Las Vegas REG L 0 17 1 2 .500 1 1 1.000 0 1 .000 0 0 1 0 1 2 0 0 1 0 2
12 2012-12-27 Canisius Alcorn State REG W 0 23 1 5 .200 0 0 1 5 .200 4 5 .800 1 5 6 3 1 0 2 3 7
13 2012-12-30 Canisius @ Detroit Mercy REG L 0 12 0 1 .000 0 1 .000 0 0 0 0 1 1 2 0 1 0 2 2 0
14 2013-01-03 Canisius Fairfield REG L 0 3 0 0 0 0 0 0 0 0 0 2 2 0 0 0 1 0 0
15 2013-01-19 Canisius Siena REG W 0 24 5 8 .625 4 5 .800 1 3 .333 0 0 0 2 2 3 3 0 3 1 11
16 2013-01-25 Canisius @ Rider REG W 0 25 2 4 .500 1 2 .500 1 2 .500 0 0 1 2 3 0 1 0 2 3 5
17 2013-01-27 Canisius Niagara REG L 0 18 1 5 .200 0 1 .000 1 4 .250 0 0 0 0 0 0 0 0 3 3 3
18 2013-01-31 Canisius Loyola (MD) REG W 0 13 1 2 .500 0 0 1 2 .500 4 4 1.000 0 2 2 2 0 0 2 0 7
19 2013-02-02 Canisius Iona REG W 0 16 2 3 .667 0 0 2 3 .667 0 0 0 0 0 1 0 0 0 0 6
20 2013-02-07 Canisius @ Manhattan REG L 1 22 5 10 .500 1 2 .500 4 8 .500 2 2 1.000 0 0 0 1 2 0 1 2 16
21 2013-02-10 Canisius @ Niagara REG W 0 13 0 2 .000 0 1 .000 0 1 .000 2 2 1.000 0 1 1 1 1 0 0 1 2
22 2013-02-14 Canisius @ Loyola (MD) REG L 0 23 1 2 .500 0 0 1 2 .500 0 0 0 0 0 1 0 1 2 2 3
23 2013-02-16 Canisius @ Saint Peter's REG W 1 25 2 7 .286 2 3 .667 0 4 .000 4 4 1.000 1 3 4 2 0 0 1 1 8
24 2013-02-23 Canisius @ Vermont REG L 0 24 6 12 .500 3 6 .500 3 6 .500 0 0 2 3 5 2 0 0 2 5 15
25 2013-02-28 Canisius Saint Peter's REG W 0 14 0 2 .000 0 1 .000 0 1 .000 0 0 1 2 3 0 1 0 0 0 0
26 2013-03-02 Canisius Rider REG L 1 20 2 7 .286 0 0 2 7 .286 0 0 1 0 1 3 0 0 3 1 6
27 2013-03-09 Canisius N Iona CTOURN L 0 23 4 7 .571 1 2 .500 3 5 .600 0 0 0 1 1 1 1 0 0 4 11
28 2013-03-20 Canisius Elon CIT W 0 16 0 5 .000 0 1 .000 0 4 .000 0 0 0 2 2 0 0 0 1 3 0
29 2013-03-23 Canisius @ Youngstown State CIT W 0 29 7 17 .412 2 4 .500 5 13 .385 0 0 0 2 2 0 0 0 1 1 19
30 2013-03-26 Canisius Evansville CIT L 0 26 5 9 .556 1 2 .500 4 7 .571 0 0 2 1 3 0 0 0 3 2 14
30 Games 3 575 70 175 .400 25 53 .472 45 122 .369 29 31 .935 19 45 64 30 16 1 54 47 214